sensor_id;sensor_type;location;lat;lon;timestamp;temperature;humidity
59923;DHT22;45778;51.142;3.732;2023-04-03T00:01:14;4.10;99.90
59923;DHT22;45778;51.142;3.732;2023-04-03T00:03:40;4.20;99.90
59923;DHT22;45778;51.142;3.732;2023-04-03T00:06:09;4.00;99.90
59923;DHT22;45778;51.142;3.732;2023-04-03T00:08:37;4.00;99.90
59923;DHT22;45778;51.142;3.732;2023-04-03T00:11:04;3.80;99.90
59923;DHT22;45778;51.142;3.732;2023-04-03T00:13:30;3.80;99.90
59923;DHT22;45778;51.142;3.732;2023-04-03T00:15:55;3.80;99.90
59923;DHT22;45778;51.142;3.732;2023-04-03T00:18:22;3.90;99.90
59923;DHT22;45778;51.142;3.732;2023-04-03T00:20:48;3.80;99.90
59923;DHT22;45778;51.142;3.732;2023-04-03T00:23:14;3.70;99.90
59923;DHT22;45778;51.142;3.732;2023-04-03T00:25:40;3.60;99.90
59923;DHT22;45778;51.142;3.732;2023-04-03T00:28:06;3.50;99.90
59923;DHT22;45778;51.142;3.732;2023-04-03T00:30:32;3.40;99.90
59923;DHT22;45778;51.142;3.732;2023-04-03T00:32:58;3.60;99.90
59923;DHT22;45778;51.142;3.732;2023-04-03T00:35:24;3.60;99.90
59923;DHT22;45778;51.142;3.732;2023-04-03T00:37:51;3.50;99.90
59923;DHT22;45778;51.142;3.732;2023-04-03T00:40:18;3.50;99.90
59923;DHT22;45778;51.142;3.732;2023-04-03T00:42:45;3.40;99.90
59923;DHT22;45778;51.142;3.732;2023-04-03T00:47:44;3.30;99.90
59923;DHT22;45778;51.142;3.732;2023-04-03T00:50:10;3.20;99.90
59923;DHT22;45778;51.142;3.732;2023-04-03T00:52:37;3.20;99.90
59923;DHT22;45778;51.142;3.732;2023-04-03T00:55:05;3.30;99.90
59923;DHT22;45778;51.142;3.732;2023-04-03T00:57:31;3.20;99.90
59923;DHT22;45778;51.142;3.732;2023-04-03T01:00:03;3.10;99.90
59923;DHT22;45778;51.142;3.732;2023-04-03T01:02:30;3.10;99.90
59923;DHT22;45778;51.142;3.732;2023-04-03T01:04:55;3.10;99.90
59923;DHT22;45778;51.142;3.732;2023-04-03T01:07:25;3.00;99.90
59923;DHT22;45778;51.142;3.732;2023-04-03T01:09:56;3.10;99.90
59923;DHT22;45778;51.142;3.732;2023-04-03T01:12:42;3.40;99.90
59923;DHT22;45778;51.142;3.732;2023-04-03T01:15:21;3.40;99.90
59923;DHT22;45778;51.142;3.732;2023-04-03T01:17:56;3.40;99.90
59923;DHT22;45778;51.142;3.732;2023-04-03T01:25:44;3.40;99.90
59923;DHT22;45778;51.142;3.732;2023-04-03T01:28:13;3.50;99.90
59923;DHT22;45778;51.142;3.732;2023-04-03T01:30:58;3.40;99.90
59923;DHT22;45778;51.142;3.732;2023-04-03T01:33:25;3.20;99.90
59923;DHT22;45778;51.142;3.732;2023-04-03T01:35:51;3.20;99.90
59923;DHT22;45778;51.142;3.732;2023-04-03T01:38:16;3.10;99.90
59923;DHT22;45778;51.142;3.732;2023-04-03T01:40:42;3.10;99.90
59923;DHT22;45778;51.142;3.732;2023-04-03T01:43:08;3.00;99.90
59923;DHT22;45778;51.142;3.732;2023-04-03T01:45:33;2.90;99.90
59923;DHT22;45778;51.142;3.732;2023-04-03T01:47:59;2.90;99.90
59923;DHT22;45778;51.142;3.732;2023-04-03T01:50:25;2.90;99.90
59923;DHT22;45778;51.142;3.732;2023-04-03T01:52:51;2.90;99.90
59923;DHT22;45778;51.142;3.732;2023-04-03T01:55:16;3.00;99.90
59923;DHT22;45778;51.142;3.732;2023-04-03T01:57:42;2.90;99.90
59923;DHT22;45778;51.142;3.732;2023-04-03T02:00:08;2.80;99.90
59923;DHT22;45778;51.142;3.732;2023-04-03T02:02:34;2.70;99.90
59923;DHT22;45778;51.142;3.732;2023-04-03T02:05:00;2.70;99.90
59923;DHT22;45778;51.142;3.732;2023-04-03T02:07:26;2.70;99.90
59923;DHT22;45778;51.142;3.732;2023-04-03T02:09:52;2.60;99.90
59923;DHT22;45778;51.142;3.732;2023-04-03T02:12:18;2.80;99.90
59923;DHT22;45778;51.142;3.732;2023-04-03T02:14:44;2.70;99.90
59923;DHT22;45778;51.142;3.732;2023-04-03T02:17:09;2.70;99.90
59923;DHT22;45778;51.142;3.732;2023-04-03T02:19:35;2.60;99.90
59923;DHT22;45778;51.142;3.732;2023-04-03T02:22:05;2.60;99.90
59923;DHT22;45778;51.142;3.732;2023-04-03T02:24:31;2.60;99.90
59923;DHT22;45778;51.142;3.732;2023-04-03T02:26:57;2.50;99.90
59923;DHT22;45778;51.142;3.732;2023-04-03T02:29:22;2.50;99.90
59923;DHT22;45778;51.142;3.732;2023-04-03T02:31:49;2.60;99.90
59923;DHT22;45778;51.142;3.732;2023-04-03T02:34:14;2.60;99.90
59923;DHT22;45778;51.142;3.732;2023-04-03T02:36:40;2.60;99.90
59923;DHT22;45778;51.142;3.732;2023-04-03T02:39:06;2.60;99.90
59923;DHT22;45778;51.142;3.732;2023-04-03T02:41:32;2.60;99.90
59923;DHT22;45778;51.142;3.732;2023-04-03T02:44:06;2.50;99.90
59923;DHT22;45778;51.142;3.732;2023-04-03T02:46:33;2.50;99.90
59923;DHT22;45778;51.142;3.732;2023-04-03T02:48:58;2.60;99.90
59923;DHT22;45778;51.142;3.732;2023-04-03T02:51:25;2.60;99.90
59923;DHT22;45778;51.142;3.732;2023-04-03T02:53:50;2.50;99.90
59923;DHT22;45778;51.142;3.732;2023-04-03T02:56:17;2.40;99.90
59923;DHT22;45778;51.142;3.732;2023-04-03T02:58:44;2.40;99.90
59923;DHT22;45778;51.142;3.732;2023-04-03T03:01:10;2.40;99.90
59923;DHT22;45778;51.142;3.732;2023-04-03T03:03:36;2.40;99.90
59923;DHT22;45778;51.142;3.732;2023-04-03T03:06:07;2.40;99.90
59923;DHT22;45778;51.142;3.732;2023-04-03T03:08:33;2.40;99.90
59923;DHT22;45778;51.142;3.732;2023-04-03T03:10:59;2.30;99.90
59923;DHT22;45778;51.142;3.732;2023-04-03T03:13:25;2.40;99.90
59923;DHT22;45778;51.142;3.732;2023-04-03T03:15:52;2.40;99.90
59923;DHT22;45778;51.142;3.732;2023-04-03T03:18:18;2.40;99.90
59923;DHT22;45778;51.142;3.732;2023-04-03T03:20:44;2.50;99.90
59923;DHT22;45778;51.142;3.732;2023-04-03T03:23:09;2.60;99.90
59923;DHT22;45778;51.142;3.732;2023-04-03T03:25:40;2.40;99.90
59923;DHT22;45778;51.142;3.732;2023-04-03T03:28:06;2.40;99.90
59923;DHT22;45778;51.142;3.732;2023-04-03T03:30:33;2.40;99.90
59923;DHT22;45778;51.142;3.732;2023-04-03T03:32:58;2.40;99.90
59923;DHT22;45778;51.142;3.732;2023-04-03T03:35:24;2.50;99.90
59923;DHT22;45778;51.142;3.732;2023-04-03T03:37:50;2.50;99.90
59923;DHT22;45778;51.142;3.732;2023-04-03T03:40:15;2.40;99.90
59923;DHT22;45778;51.142;3.732;2023-04-03T03:42:41;2.40;99.90
59923;DHT22;45778;51.142;3.732;2023-04-03T03:45:07;2.40;99.90
59923;DHT22;45778;51.142;3.732;2023-04-03T03:47:33;2.50;99.90
59923;DHT22;45778;51.142;3.732;2023-04-03T03:49:59;2.40;99.90
59923;DHT22;45778;51.142;3.732;2023-04-03T03:52:24;2.50;99.90
59923;DHT22;45778;51.142;3.732;2023-04-03T03:54:50;2.60;99.90
59923;DHT22;45778;51.142;3.732;2023-04-03T03:57:16;2.50;99.90
59923;DHT22;45778;51.142;3.732;2023-04-03T03:59:42;2.50;99.90
59923;DHT22;45778;51.142;3.732;2023-04-03T04:02:09;2.60;99.90
59923;DHT22;45778;51.142;3.732;2023-04-03T04:04:36;2.40;99.90
59923;DHT22;45778;51.142;3.732;2023-04-03T04:07:02;2.30;99.90
59923;DHT22;45778;51.142;3.732;2023-04-03T04:09:27;2.40;99.90
59923;DHT22;45778;51.142;3.732;2023-04-03T04:11:53;2.40;99.90
59923;DHT22;45778;51.142;3.732;2023-04-03T04:14:19;2.50;99.90
59923;DHT22;45778;51.142;3.732;2023-04-03T04:16:48;2.40;99.90
59923;DHT22;45778;51.142;3.732;2023-04-03T04:19:14;2.40;99.90
59923;DHT22;45778;51.142;3.732;2023-04-03T04:21:40;2.30;99.90
59923;DHT22;45778;51.142;3.732;2023-04-03T04:24:07;2.30;99.90
59923;DHT22;45778;51.142;3.732;2023-04-03T04:26:33;2.30;99.90
59923;DHT22;45778;51.142;3.732;2023-04-03T04:28:59;2.30;99.90
59923;DHT22;45778;51.142;3.732;2023-04-03T04:31:25;2.20;99.90
59923;DHT22;45778;51.142;3.732;2023-04-03T04:33:52;2.20;99.90
59923;DHT22;45778;51.142;3.732;2023-04-03T04:36:18;2.30;99.90
59923;DHT22;45778;51.142;3.732;2023-04-03T04:38:44;2.40;99.90
59923;DHT22;45778;51.142;3.732;2023-04-03T04:41:10;2.20;99.90
59923;DHT22;45778;51.142;3.732;2023-04-03T04:43:36;2.30;99.90
59923;DHT22;45778;51.142;3.732;2023-04-03T04:46:09;2.50;99.90
59923;DHT22;45778;51.142;3.732;2023-04-03T04:48:38;2.30;99.90
59923;DHT22;45778;51.142;3.732;2023-04-03T04:51:04;2.20;99.90
59923;DHT22;45778;51.142;3.732;2023-04-03T04:53:29;2.10;99.90
59923;DHT22;45778;51.142;3.732;2023-04-03T04:55:55;2.20;99.90
59923;DHT22;45778;51.142;3.732;2023-04-03T04:58:22;2.10;99.90
59923;DHT22;45778;51.142;3.732;2023-04-03T05:00:59;2.00;99.90
59923;DHT22;45778;51.142;3.732;2023-04-03T05:03:25;2.10;99.90
59923;DHT22;45778;51.142;3.732;2023-04-03T05:05:51;2.10;99.90
59923;DHT22;45778;51.142;3.732;2023-04-03T05:08:16;2.00;99.90
59923;DHT22;45778;51.142;3.732;2023-04-03T05:10:42;1.90;99.90
59923;DHT22;45778;51.142;3.732;2023-04-03T05:13:09;2.00;99.90
59923;DHT22;45778;51.142;3.732;2023-04-03T05:15:35;1.90;99.90
59923;DHT22;45778;51.142;3.732;2023-04-03T05:18:01;2.00;99.90
59923;DHT22;45778;51.142;3.732;2023-04-03T05:20:26;2.00;99.90
59923;DHT22;45778;51.142;3.732;2023-04-03T05:22:52;1.90;99.90
59923;DHT22;45778;51.142;3.732;2023-04-03T05:25:18;1.90;99.90
59923;DHT22;45778;51.142;3.732;2023-04-03T05:27:44;1.90;99.90
59923;DHT22;45778;51.142;3.732;2023-04-03T05:30:10;2.10;99.90
59923;DHT22;45778;51.142;3.732;2023-04-03T05:32:36;2.00;99.90
59923;DHT22;45778;51.142;3.732;2023-04-03T05:35:02;2.00;99.90
59923;DHT22;45778;51.142;3.732;2023-04-03T05:37:27;2.10;99.90
59923;DHT22;45778;51.142;3.732;2023-04-03T05:39:53;2.20;99.90
59923;DHT22;45778;51.142;3.732;2023-04-03T05:42:19;2.20;99.90
59923;DHT22;45778;51.142;3.732;2023-04-03T05:44:44;2.10;99.90
59923;DHT22;45778;51.142;3.732;2023-04-03T05:47:12;2.30;99.90
59923;DHT22;45778;51.142;3.732;2023-04-03T05:49:38;2.20;99.90
59923;DHT22;45778;51.142;3.732;2023-04-03T05:54:50;2.20;99.90
59923;DHT22;45778;51.142;3.732;2023-04-03T05:57:16;2.30;99.90
59923;DHT22;45778;51.142;3.732;2023-04-03T05:59:43;2.30;99.90
59923;DHT22;45778;51.142;3.732;2023-04-03T06:02:14;2.40;99.90
59923;DHT22;45778;51.142;3.732;2023-04-03T06:04:40;2.50;99.90
59923;DHT22;45778;51.142;3.732;2023-04-03T06:07:06;2.50;99.90
59923;DHT22;45778;51.142;3.732;2023-04-03T06:09:33;2.60;99.90
59923;DHT22;45778;51.142;3.732;2023-04-03T06:11:59;2.60;99.90
59923;DHT22;45778;51.142;3.732;2023-04-03T06:14:25;2.80;99.90
59923;DHT22;45778;51.142;3.732;2023-04-03T06:16:52;2.90;99.90
59923;DHT22;45778;51.142;3.732;2023-04-03T06:19:18;3.00;99.90
59923;DHT22;45778;51.142;3.732;2023-04-03T06:21:44;3.00;99.90
59923;DHT22;45778;51.142;3.732;2023-04-03T06:24:14;3.10;99.90
59923;DHT22;45778;51.142;3.732;2023-04-03T06:26:40;3.10;99.90
59923;DHT22;45778;51.142;3.732;2023-04-03T06:29:06;3.20;99.90
59923;DHT22;45778;51.142;3.732;2023-04-03T06:31:32;3.30;99.90
59923;DHT22;45778;51.142;3.732;2023-04-03T06:33:58;3.40;99.90
59923;DHT22;45778;51.142;3.732;2023-04-03T06:36:24;3.50;99.90
59923;DHT22;45778;51.142;3.732;2023-04-03T06:38:51;3.60;99.90
59923;DHT22;45778;51.142;3.732;2023-04-03T06:41:16;3.70;99.90
59923;DHT22;45778;51.142;3.732;2023-04-03T06:43:43;3.80;99.90
59923;DHT22;45778;51.142;3.732;2023-04-03T06:46:18;4.00;99.90
59923;DHT22;45778;51.142;3.732;2023-04-03T06:48:44;4.00;99.90
59923;DHT22;45778;51.142;3.732;2023-04-03T06:51:28;4.10;99.90
59923;DHT22;45778;51.142;3.732;2023-04-03T06:53:55;4.30;99.90
59923;DHT22;45778;51.142;3.732;2023-04-03T06:56:22;4.30;99.90
59923;DHT22;45778;51.142;3.732;2023-04-03T06:58:48;4.50;99.90
59923;DHT22;45778;51.142;3.732;2023-04-03T07:01:16;4.60;99.90
59923;DHT22;45778;51.142;3.732;2023-04-03T07:03:43;4.80;99.90
59923;DHT22;45778;51.142;3.732;2023-04-03T07:06:11;4.80;99.90
59923;DHT22;45778;51.142;3.732;2023-04-03T07:08:37;4.90;99.90
59923;DHT22;45778;51.142;3.732;2023-04-03T07:11:04;5.00;99.90
59923;DHT22;45778;51.142;3.732;2023-04-03T07:13:30;5.10;99.90
59923;DHT22;45778;51.142;3.732;2023-04-03T07:15:56;5.20;99.90
59923;DHT22;45778;51.142;3.732;2023-04-03T07:18:22;5.40;99.90
59923;DHT22;45778;51.142;3.732;2023-04-03T07:20:47;5.50;99.90
59923;DHT22;45778;51.142;3.732;2023-04-03T07:23:13;5.60;99.90
59923;DHT22;45778;51.142;3.732;2023-04-03T07:25:45;5.60;99.90
59923;DHT22;45778;51.142;3.732;2023-04-03T07:28:12;5.70;99.90
59923;DHT22;45778;51.142;3.732;2023-04-03T07:31:10;5.80;99.90
59923;DHT22;45778;51.142;3.732;2023-04-03T07:33:38;6.00;99.90
59923;DHT22;45778;51.142;3.732;2023-04-03T07:36:04;6.30;99.90
59923;DHT22;45778;51.142;3.732;2023-04-03T07:38:33;6.40;99.90
59923;DHT22;45778;51.142;3.732;2023-04-03T07:40:59;6.50;99.90
59923;DHT22;45778;51.142;3.732;2023-04-03T07:43:25;6.50;99.90
59923;DHT22;45778;51.142;3.732;2023-04-03T07:45:51;6.50;99.90
59923;DHT22;45778;51.142;3.732;2023-04-03T07:48:18;6.70;99.90
59923;DHT22;45778;51.142;3.732;2023-04-03T07:50:44;6.90;99.90
59923;DHT22;45778;51.142;3.732;2023-04-03T07:53:10;7.10;99.90
59923;DHT22;45778;51.142;3.732;2023-04-03T07:55:36;7.20;99.90
59923;DHT22;45778;51.142;3.732;2023-04-03T07:58:12;7.20;99.90
59923;DHT22;45778;51.142;3.732;2023-04-03T08:00:38;7.30;99.90
59923;DHT22;45778;51.142;3.732;2023-04-03T08:03:05;7.50;99.90
59923;DHT22;45778;51.142;3.732;2023-04-03T08:05:31;7.30;99.90
59923;DHT22;45778;51.142;3.732;2023-04-03T08:07:57;7.30;99.90
59923;DHT22;45778;51.142;3.732;2023-04-03T08:10:22;7.40;99.90
59923;DHT22;45778;51.142;3.732;2023-04-03T08:12:48;7.60;99.90
59923;DHT22;45778;51.142;3.732;2023-04-03T08:15:14;7.80;99.90
59923;DHT22;45778;51.142;3.732;2023-04-03T08:17:40;7.90;99.90
59923;DHT22;45778;51.142;3.732;2023-04-03T08:20:07;8.00;99.90
59923;DHT22;45778;51.142;3.732;2023-04-03T08:22:34;8.10;99.90
59923;DHT22;45778;51.142;3.732;2023-04-03T08:24:59;8.00;99.90
59923;DHT22;45778;51.142;3.732;2023-04-03T08:27:27;7.80;99.90
59923;DHT22;45778;51.142;3.732;2023-04-03T08:29:52;7.60;99.90
59923;DHT22;45778;51.142;3.732;2023-04-03T08:32:18;7.80;99.90
59923;DHT22;45778;51.142;3.732;2023-04-03T08:34:44;7.90;99.90
59923;DHT22;45778;51.142;3.732;2023-04-03T08:37:11;8.00;99.90
59923;DHT22;45778;51.142;3.732;2023-04-03T08:39:37;8.00;99.90
59923;DHT22;45778;51.142;3.732;2023-04-03T08:42:11;8.10;99.90
59923;DHT22;45778;51.142;3.732;2023-04-03T08:44:53;8.20;99.90
59923;DHT22;45778;51.142;3.732;2023-04-03T08:50:01;8.30;99.90
59923;DHT22;45778;51.142;3.732;2023-04-03T08:55:01;8.50;99.90
59923;DHT22;45778;51.142;3.732;2023-04-03T08:58:02;8.40;99.90
59923;DHT22;45778;51.142;3.732;2023-04-03T09:00:24;8.50;99.90
59923;DHT22;45778;51.142;3.732;2023-04-03T09:02:55;8.60;99.90
59923;DHT22;45778;51.142;3.732;2023-04-03T09:08:12;8.70;99.90
59923;DHT22;45778;51.142;3.732;2023-04-03T09:10:40;8.70;99.90
59923;DHT22;45778;51.142;3.732;2023-04-03T09:13:59;8.90;99.90
59923;DHT22;45778;51.142;3.732;2023-04-03T09:16:31;9.10;99.90
59923;DHT22;45778;51.142;3.732;2023-04-03T09:22:28;9.30;99.90
59923;DHT22;45778;51.142;3.732;2023-04-03T09:25:16;9.40;99.90
59923;DHT22;45778;51.142;3.732;2023-04-03T09:27:44;9.40;99.90
59923;DHT22;45778;51.142;3.732;2023-04-03T09:30:16;9.10;99.90
59923;DHT22;45778;51.142;3.732;2023-04-03T09:32:45;9.10;99.90
59923;DHT22;45778;51.142;3.732;2023-04-03T09:37:43;9.00;99.90
59923;DHT22;45778;51.142;3.732;2023-04-03T09:40:42;9.10;99.90
59923;DHT22;45778;51.142;3.732;2023-04-03T09:45:43;9.10;99.60
59923;DHT22;45778;51.142;3.732;2023-04-03T09:51:02;9.10;99.90
59923;DHT22;45778;51.142;3.732;2023-04-03T09:53:43;9.10;99.90
59923;DHT22;45778;51.142;3.732;2023-04-03T09:58:46;9.40;99.90
59923;DHT22;45778;51.142;3.732;2023-04-03T10:01:25;9.50;99.90
59923;DHT22;45778;51.142;3.732;2023-04-03T10:06:38;9.80;99.30
59923;DHT22;45778;51.142;3.732;2023-04-03T10:12:07;10.00;99.00
59923;DHT22;45778;51.142;3.732;2023-04-03T10:14:36;10.10;98.00
59923;DHT22;45778;51.142;3.732;2023-04-03T10:19:56;10.20;98.40
59923;DHT22;45778;51.142;3.732;2023-04-03T10:22:37;10.20;98.80
59923;DHT22;45778;51.142;3.732;2023-04-03T10:25:17;10.30;98.00
59923;DHT22;45778;51.142;3.732;2023-04-03T10:27:57;10.40;98.20
59923;DHT22;45778;51.142;3.732;2023-04-03T10:33:12;10.70;97.00
59923;DHT22;45778;51.142;3.732;2023-04-03T10:36:10;10.80;96.90
59923;DHT22;45778;51.142;3.732;2023-04-03T10:39:00;10.80;95.50
59923;DHT22;45778;51.142;3.732;2023-04-03T10:47:12;10.70;96.40
59923;DHT22;45778;51.142;3.732;2023-04-03T10:57:43;11.00;95.60
59923;DHT22;45778;51.142;3.732;2023-04-03T11:00:18;11.10;93.60
59923;DHT22;45778;51.142;3.732;2023-04-03T11:05:36;11.20;93.60
59923;DHT22;45778;51.142;3.732;2023-04-03T11:10:48;11.20;92.90
59923;DHT22;45778;51.142;3.732;2023-04-03T11:13:22;11.30;92.70
59923;DHT22;45778;51.142;3.732;2023-04-03T11:15:53;11.30;92.90
59923;DHT22;45778;51.142;3.732;2023-04-03T11:18:27;11.50;92.30
59923;DHT22;45778;51.142;3.732;2023-04-03T11:21:20;11.60;91.60
59923;DHT22;45778;51.142;3.732;2023-04-03T11:23:47;11.60;91.40
59923;DHT22;45778;51.142;3.732;2023-04-03T11:26:19;11.80;91.20
59923;DHT22;45778;51.142;3.732;2023-04-03T11:28:46;11.80;91.20
59923;DHT22;45778;51.142;3.732;2023-04-03T11:36:33;12.00;90.90
59923;DHT22;45778;51.142;3.732;2023-04-03T11:39:23;12.00;90.30
59923;DHT22;45778;51.142;3.732;2023-04-03T11:41:48;12.10;90.90
59923;DHT22;45778;51.142;3.732;2023-04-03T11:44:35;12.10;90.00
59923;DHT22;45778;51.142;3.732;2023-04-03T11:47:09;12.20;89.30
59923;DHT22;45778;51.142;3.732;2023-04-03T11:52:55;12.10;85.20
59923;DHT22;45778;51.142;3.732;2023-04-03T11:58:03;12.20;87.70
59923;DHT22;45778;51.142;3.732;2023-04-03T12:13:35;15.40;76.10
59923;DHT22;45778;51.142;3.732;2023-04-03T12:16:02;16.00;75.90
59923;DHT22;45778;51.142;3.732;2023-04-03T12:18:55;17.10;72.60
59923;DHT22;45778;51.142;3.732;2023-04-03T12:45:59;21.40;56.60
59923;DHT22;45778;51.142;3.732;2023-04-03T12:48:30;20.70;56.60
59923;DHT22;45778;51.142;3.732;2023-04-03T12:50:57;21.10;53.50
59923;DHT22;45778;51.142;3.732;2023-04-03T12:53:31;21.40;54.80
59923;DHT22;45778;51.142;3.732;2023-04-03T12:58:46;22.10;52.40
59923;DHT22;45778;51.142;3.732;2023-04-03T13:01:15;22.10;51.80
59923;DHT22;45778;51.142;3.732;2023-04-03T13:03:45;22.20;51.50
59923;DHT22;45778;51.142;3.732;2023-04-03T13:06:39;23.10;51.50
59923;DHT22;45778;51.142;3.732;2023-04-03T13:09:06;24.40;49.30
59923;DHT22;45778;51.142;3.732;2023-04-03T13:11:38;23.90;49.40
59923;DHT22;45778;51.142;3.732;2023-04-03T13:14:16;23.90;47.30
59923;DHT22;45778;51.142;3.732;2023-04-03T13:16:42;23.10;48.50
59923;DHT22;45778;51.142;3.732;2023-04-03T13:19:17;23.70;47.20
59923;DHT22;45778;51.142;3.732;2023-04-03T13:21:44;23.80;47.40
59923;DHT22;45778;51.142;3.732;2023-04-03T13:24:11;23.40;48.70
59923;DHT22;45778;51.142;3.732;2023-04-03T13:26:37;23.20;47.20
59923;DHT22;45778;51.142;3.732;2023-04-03T13:29:06;23.40;46.70
59923;DHT22;45778;51.142;3.732;2023-04-03T13:31:37;24.00;46.00
59923;DHT22;45778;51.142;3.732;2023-04-03T13:34:18;23.70;44.20
59923;DHT22;45778;51.142;3.732;2023-04-03T13:37:05;23.70;45.50
59923;DHT22;45778;51.142;3.732;2023-04-03T13:39:35;24.20;44.80
59923;DHT22;45778;51.142;3.732;2023-04-03T13:42:20;25.10;45.70
59923;DHT22;45778;51.142;3.732;2023-04-03T13:44:47;26.30;43.10
59923;DHT22;45778;51.142;3.732;2023-04-03T13:47:22;25.50;45.10
59923;DHT22;45778;51.142;3.732;2023-04-03T13:52:52;26.80;43.40
59923;DHT22;45778;51.142;3.732;2023-04-03T13:55:33;26.90;43.00
59923;DHT22;45778;51.142;3.732;2023-04-03T14:00:37;26.50;42.00
59923;DHT22;45778;51.142;3.732;2023-04-03T14:03:13;26.20;41.80
59923;DHT22;45778;51.142;3.732;2023-04-03T14:05:39;26.40;41.80
59923;DHT22;45778;51.142;3.732;2023-04-03T14:08:05;26.40;41.50
59923;DHT22;45778;51.142;3.732;2023-04-03T14:10:32;27.00;41.70
59923;DHT22;45778;51.142;3.732;2023-04-03T14:12:58;27.80;42.30
59923;DHT22;45778;51.142;3.732;2023-04-03T14:15:27;27.40;40.50
59923;DHT22;45778;51.142;3.732;2023-04-03T14:17:53;27.70;41.20
59923;DHT22;45778;51.142;3.732;2023-04-03T14:20:24;28.20;39.70
59923;DHT22;45778;51.142;3.732;2023-04-03T14:22:50;28.60;39.80
59923;DHT22;45778;51.142;3.732;2023-04-03T14:25:17;28.50;40.00
59923;DHT22;45778;51.142;3.732;2023-04-03T14:27:46;28.70;40.50
59923;DHT22;45778;51.142;3.732;2023-04-03T14:30:19;28.60;39.90
59923;DHT22;45778;51.142;3.732;2023-04-03T14:32:46;27.90;39.20
59923;DHT22;45778;51.142;3.732;2023-04-03T14:35:13;28.30;40.40
59923;DHT22;45778;51.142;3.732;2023-04-03T14:37:38;28.80;40.20
59923;DHT22;45778;51.142;3.732;2023-04-03T14:40:06;29.10;38.10
59923;DHT22;45778;51.142;3.732;2023-04-03T14:42:34;28.70;39.00
59923;DHT22;45778;51.142;3.732;2023-04-03T14:45:07;28.20;39.30
59923;DHT22;45778;51.142;3.732;2023-04-03T14:47:46;28.80;39.20
59923;DHT22;45778;51.142;3.732;2023-04-03T14:50:22;27.80;38.20
59923;DHT22;45778;51.142;3.732;2023-04-03T14:52:51;27.40;37.20
59923;DHT22;45778;51.142;3.732;2023-04-03T14:55:20;27.10;37.50
59923;DHT22;45778;51.142;3.732;2023-04-03T14:57:46;27.00;39.70
59923;DHT22;45778;51.142;3.732;2023-04-03T15:00:16;26.50;37.30
59923;DHT22;45778;51.142;3.732;2023-04-03T15:02:43;26.40;38.30
59923;DHT22;45778;51.142;3.732;2023-04-03T15:05:10;25.80;38.30
59923;DHT22;45778;51.142;3.732;2023-04-03T15:07:52;25.50;39.00
59923;DHT22;45778;51.142;3.732;2023-04-03T15:10:25;25.40;39.30
59923;DHT22;45778;51.142;3.732;2023-04-03T15:12:51;26.60;39.20
59923;DHT22;45778;51.142;3.732;2023-04-03T15:15:19;26.30;38.30
59923;DHT22;45778;51.142;3.732;2023-04-03T15:17:47;26.30;38.30
59923;DHT22;45778;51.142;3.732;2023-04-03T15:20:19;26.70;38.70
59923;DHT22;45778;51.142;3.732;2023-04-03T15:22:46;26.60;37.90
59923;DHT22;45778;51.142;3.732;2023-04-03T15:25:12;25.70;36.80
59923;DHT22;45778;51.142;3.732;2023-04-03T15:27:38;25.90;37.70
59923;DHT22;45778;51.142;3.732;2023-04-03T15:30:05;26.00;38.90
59923;DHT22;45778;51.142;3.732;2023-04-03T15:32:32;26.60;37.80
59923;DHT22;45778;51.142;3.732;2023-04-03T15:34:59;27.40;38.10
59923;DHT22;45778;51.142;3.732;2023-04-03T15:37:24;27.60;36.10
59923;DHT22;45778;51.142;3.732;2023-04-03T15:39:50;28.20;37.40
59923;DHT22;45778;51.142;3.732;2023-04-03T15:42:16;28.60;37.50
59923;DHT22;45778;51.142;3.732;2023-04-03T15:44:41;28.10;36.50
59923;DHT22;45778;51.142;3.732;2023-04-03T15:47:07;27.20;35.90
59923;DHT22;45778;51.142;3.732;2023-04-03T15:49:34;27.20;36.50
59923;DHT22;45778;51.142;3.732;2023-04-03T15:52:00;27.70;37.40
59923;DHT22;45778;51.142;3.732;2023-04-03T15:54:27;27.70;36.90
59923;DHT22;45778;51.142;3.732;2023-04-03T15:56:55;27.70;36.40
59923;DHT22;45778;51.142;3.732;2023-04-03T15:59:21;27.40;37.90
59923;DHT22;45778;51.142;3.732;2023-04-03T16:01:47;28.40;37.10
59923;DHT22;45778;51.142;3.732;2023-04-03T16:04:13;28.80;37.00
59923;DHT22;45778;51.142;3.732;2023-04-03T16:06:40;28.90;36.30
59923;DHT22;45778;51.142;3.732;2023-04-03T16:09:07;28.90;36.10
59923;DHT22;45778;51.142;3.732;2023-04-03T16:11:33;29.00;36.10
59923;DHT22;45778;51.142;3.732;2023-04-03T16:14:01;29.10;36.80
59923;DHT22;45778;51.142;3.732;2023-04-03T16:16:26;28.40;35.90
59923;DHT22;45778;51.142;3.732;2023-04-03T16:18:54;28.30;36.60
59923;DHT22;45778;51.142;3.732;2023-04-03T16:21:20;28.00;35.50
59923;DHT22;45778;51.142;3.732;2023-04-03T16:23:46;27.60;36.10
59923;DHT22;45778;51.142;3.732;2023-04-03T16:26:12;27.50;37.00
59923;DHT22;45778;51.142;3.732;2023-04-03T16:28:38;26.70;35.90
59923;DHT22;45778;51.142;3.732;2023-04-03T16:31:05;26.60;36.90
59923;DHT22;45778;51.142;3.732;2023-04-03T16:33:31;26.40;36.60
59923;DHT22;45778;51.142;3.732;2023-04-03T16:35:57;26.10;37.30
59923;DHT22;45778;51.142;3.732;2023-04-03T16:38:23;25.90;37.20
59923;DHT22;45778;51.142;3.732;2023-04-03T16:40:49;26.50;37.20
59923;DHT22;45778;51.142;3.732;2023-04-03T16:43:15;26.40;36.40
59923;DHT22;45778;51.142;3.732;2023-04-03T16:45:42;26.50;36.30
59923;DHT22;45778;51.142;3.732;2023-04-03T16:48:07;26.30;37.10
59923;DHT22;45778;51.142;3.732;2023-04-03T16:50:33;25.80;36.20
59923;DHT22;45778;51.142;3.732;2023-04-03T16:52:59;25.90;36.90
59923;DHT22;45778;51.142;3.732;2023-04-03T16:55:25;25.70;37.00
59923;DHT22;45778;51.142;3.732;2023-04-03T16:57:50;25.40;37.60
59923;DHT22;45778;51.142;3.732;2023-04-03T17:00:16;24.90;37.00
59923;DHT22;45778;51.142;3.732;2023-04-03T17:02:42;24.50;38.40
59923;DHT22;45778;51.142;3.732;2023-04-03T17:05:08;25.20;37.20
59923;DHT22;45778;51.142;3.732;2023-04-03T17:07:34;25.50;37.50
59923;DHT22;45778;51.142;3.732;2023-04-03T17:10:00;25.10;36.70
59923;DHT22;45778;51.142;3.732;2023-04-03T17:12:26;24.40;38.50
59923;DHT22;45778;51.142;3.732;2023-04-03T17:14:51;24.70;37.40
59923;DHT22;45778;51.142;3.732;2023-04-03T17:17:22;24.70;38.50
59923;DHT22;45778;51.142;3.732;2023-04-03T17:19:49;24.90;38.40
59923;DHT22;45778;51.142;3.732;2023-04-03T17:22:15;24.20;38.30
59923;DHT22;45778;51.142;3.732;2023-04-03T17:24:43;23.50;39.40
59923;DHT22;45778;51.142;3.732;2023-04-03T17:27:09;22.20;39.80
59923;DHT22;45778;51.142;3.732;2023-04-03T17:29:35;21.90;41.40
59923;DHT22;45778;51.142;3.732;2023-04-03T17:32:00;21.80;42.40
59923;DHT22;45778;51.142;3.732;2023-04-03T17:34:26;22.10;42.00
59923;DHT22;45778;51.142;3.732;2023-04-03T17:36:52;21.70;42.00
59923;DHT22;45778;51.142;3.732;2023-04-03T17:39:18;21.30;43.00
59923;DHT22;45778;51.142;3.732;2023-04-03T17:41:43;21.40;43.10
59923;DHT22;45778;51.142;3.732;2023-04-03T17:44:10;21.00;43.80
59923;DHT22;45778;51.142;3.732;2023-04-03T17:46:36;20.90;43.90
59923;DHT22;45778;51.142;3.732;2023-04-03T17:49:02;20.10;43.80